This is the latest recevied weather packets stored in our database for station/object VE7OTD. If no packets are shown the sender has not sent any weather packets the latest 10 day(s).
| Time | Temp. | Humidity | Pressure | Rain* | Wind** | Luminosity | Snow |
|---|---|---|---|---|---|---|---|
| 1788547772 | 16.11° C | 90% | 1014 hPa | 0 mm | - | - | - |
| 1788546601 | 15° C | 95% | 1013.4 hPa | 0 mm | - | - | - |
| 1788546437 | 14.44° C | 98% | 1013.3 hPa | 0 mm | - | - | - |
| 1788545957 | 15.56° C | 89% | 1013.7 hPa | 0 mm | - | - | - |
| 1788525992 | 12.22° C | 99% | 1011.7 hPa | 0.25 mm | - | - | - |
| 1788524177 | 12.22° C | 99% | 1011.8 hPa | 0.51 mm | - | - | - |
| 1788522349 | 12.22° C | 99% | 1011.5 hPa | 0.76 mm | - | - | - |
| 1788520548 | 12.78° C | 99% | 1011.5 hPa | 0.51 mm | - | - | - |
| 1788518733 | 12.78° C | 99% | 1011.4 hPa | 0.25 mm | - | - | - |
| 1788516917 | 12.78° C | 99% | 1011.1 hPa | 0.25 mm | - | - | - |
| 1788515117 | 12.78° C | 99% | 1010.9 hPa | 0 mm | - | - | - |
| 1788513287 | 13.33° C | 99% | 1011 hPa | 0 mm | - | - | - |
| 1788511472 | 13.33° C | 98% | 1010.9 hPa | 0 mm | - | - | - |
| 1788509657 | 13.33° C | 99% | 1011 hPa | 0 mm | - | - | - |
| 1788507858 | 13.33° C | 97% | 1010.9 hPa | 0 mm | - | - | - |
| 1788506042 | 13.33° C | 97% | 1010.8 hPa | 0 mm | - | - | - |
| 1788504212 | 13.33° C | 98% | 1010.9 hPa | 0 mm | - | - | - |
| 1788502354 | 13.33° C | 96% | 1010.9 hPa | 0 mm | - | - | - |
| 1788500538 | 13.33° C | 97% | 1010.9 hPa | 0 mm | - | - | - |
| 1788498723 | 13.33° C | 94% | 1010.7 hPa | 0 mm | - | - | - |
| 1788496908 | 13.33° C | 94% | 1010.6 hPa | 0 mm | - | - | - |
| 1788495094 | 13.33° C | 91% | 1010.6 hPa | 0 mm | - | - | - |
| 1788493278 | 13.89° C | 88% | 1010.6 hPa | 0 mm | - | - | - |
| 1788491463 | 14.44° C | 86% | 1010.4 hPa | 0 mm | - | - | - |
| 1788489648 | 15.56° C | 79% | 1010.6 hPa | 0 mm | - | - | - |
* Rain latest hour (hover to see other rain measurements)
** Current wind speed in m/s (hover to see current wind gust speed)